TimePDT,TemperatureF,Dew PointF,Humidity,Sea Level PressureIn,VisibilityMPH,Wind Direction,Wind SpeedMPH,Gust SpeedMPH,PrecipitationIn,Events,Conditions,WindDirDegrees,DateUTC
12:18 AM,64.4,55.4,73,29.89,10.0,NW,6.9,-,N/A,,Overcast,320,2013-06-04 07:18:00
12:55 AM,64.0,55.0,73,29.91,10.0,NNW,5.8,-,N/A,,Overcast,330,2013-06-04 07:55:00
1:55 AM,64.0,55.9,75,29.91,8.0,Calm,Calm,-,N/A,,Overcast,0,2013-06-04 08:55:00
2:19 AM,64.4,55.4,73,29.88,9.0,NNW,3.5,-,N/A,,Overcast,340,2013-06-04 09:19:00
2:55 AM,64.9,55.9,73,29.91,10.0,Calm,Calm,-,N/A,,Overcast,0,2013-06-04 09:55:00
3:55 AM,64.9,55.9,73,29.92,10.0,Calm,Calm,-,N/A,,Overcast,0,2013-06-04 10:55:00
4:55 AM,64.9,57.0,75,29.92,10.0,NNW,3.5,-,N/A,,Overcast,340,2013-06-04 11:55:00
5:55 AM,64.9,57.0,75,29.93,10.0,SSW,3.5,-,N/A,,Overcast,210,2013-06-04 12:55:00
6:55 AM,66.0,57.0,73,29.94,10.0,West,3.5,-,N/A,,Overcast,280,2013-06-04 13:55:00
7:18 AM,66.2,57.2,73,29.92,10.0,Calm,Calm,-,N/A,,Overcast,0,2013-06-04 14:18:00
7:34 AM,66.2,57.2,73,29.92,10.0,Calm,Calm,-,N/A,,Overcast,0,2013-06-04 14:34:00
7:55 AM,66.0,57.0,73,29.95,10.0,Calm,Calm,-,N/A,,Overcast,0,2013-06-04 14:55:00
8:55 AM,68.0,57.0,68,29.96,10.0,SSW,3.5,-,N/A,,Overcast,210,2013-06-04 15:55:00
9:29 AM,68.0,57.2,68,29.94,10.0,Variable,4.6,-,N/A,,Overcast,0,2013-06-04 16:29:00
9:55 AM,69.1,55.9,63,29.97,10.0,SSW,5.8,-,N/A,,Overcast,200,2013-06-04 16:55:00
10:55 AM,71.1,55.9,59,29.98,10.0,SSW,6.9,-,N/A,,Mostly Cloudy,200,2013-06-04 17:55:00
11:55 AM,73.0,55.9,55,29.97,10.0,SW,10.4,17.3,N/A,,Scattered Clouds,220,2013-06-04 18:55:00
12:55 PM,73.0,55.9,55,29.97,10.0,SSW,12.7,-,N/A,,Unknown,210,2013-06-04 19:55:00
1:02 PM,73.4,55.4,53,29.94,10.0,SW,9.2,-,N/A,,Mostly Cloudy,220,2013-06-04 20:02:00
1:55 PM,73.9,55.9,53,29.97,10.0,SSW,10.4,-,N/A,,Mostly Cloudy,210,2013-06-04 20:55:00
2:55 PM,72.0,55.9,57,29.97,10.0,WSW,9.2,-,N/A,,Mostly Cloudy,250,2013-06-04 21:55:00
3:55 PM,73.0,55.9,55,29.95,10.0,West,9.2,-,N/A,,Scattered Clouds,260,2013-06-04 22:55:00
4:55 PM,73.0,55.0,53,29.94,10.0,WSW,10.4,-,N/A,,Clear,250,2013-06-04 23:55:00
5:55 PM,71.1,55.0,57,29.94,10.0,West,11.5,-,N/A,,Clear,270,2013-06-05 00:55:00
6:55 PM,66.9,53.1,61,29.96,10.0,West,12.7,-,N/A,,Clear,270,2013-06-05 01:55:00
7:55 PM,64.9,52.0,63,29.98,10.0,West,10.4,-,N/A,,Clear,270,2013-06-05 02:55:00
8:55 PM,63.0,53.1,70,29.98,10.0,West,6.9,-,N/A,,Clear,270,2013-06-05 03:55:00
9:55 PM,63.0,52.0,67,29.99,10.0,WSW,4.6,-,N/A,,Clear,240,2013-06-05 04:55:00
10:55 PM,63.0,52.0,67,30.00,10.0,Calm,Calm,-,N/A,,Clear,0,2013-06-05 05:55:00
11:55 PM,61.0,52.0,72,29.99,10.0,SE,4.6,-,N/A,,Clear,130,2013-06-05 06:55:00